createdAt,value
2022-08-02T03:45:33.702Z,17.50
2022-08-02T03:48:01.279Z,17.40
2022-08-02T03:50:33.957Z,17.30
2022-08-02T03:53:01.994Z,17.40
2022-08-02T03:55:28.891Z,17.40
2022-08-02T03:57:56.994Z,17.40
2022-08-02T04:00:24.164Z,17.40
2022-08-02T04:02:51.374Z,17.40
2022-08-02T04:05:18.878Z,17.40
2022-08-02T04:08:33.656Z,17.40
2022-08-02T04:10:54.073Z,17.30
2022-08-02T04:13:22.684Z,17.30
2022-08-02T04:15:53.938Z,17.30
2022-08-02T04:18:25.625Z,17.30
2022-08-02T04:20:55.667Z,17.30
2022-08-02T04:23:24.214Z,17.30
2022-08-02T04:25:54.750Z,17.30
2022-08-02T04:28:27.762Z,17.30
2022-08-02T04:30:57.792Z,17.30
2022-08-02T04:33:25.518Z,17.30
2022-08-02T04:35:56.501Z,17.30
2022-08-02T04:38:26.572Z,17.40
2022-08-02T04:40:55.447Z,17.40
2022-08-02T04:43:22.733Z,17.50
2022-08-02T04:45:53.067Z,17.60
2022-08-02T04:48:21.178Z,17.50
2022-08-02T04:50:48.270Z,17.50
2022-08-02T04:53:15.097Z,17.60
2022-08-02T04:55:42.058Z,17.50
2022-08-02T04:58:37.036Z,17.60
2022-08-02T05:00:55.858Z,17.70
2022-08-02T05:03:22.582Z,17.70
2022-08-02T05:05:49.311Z,17.70
2022-08-02T05:08:16.146Z,17.80
2022-08-02T05:10:42.834Z,17.80
2022-08-02T05:13:09.538Z,17.90
2022-08-02T05:15:36.431Z,18.00
2022-08-02T05:18:03.237Z,18.10
2022-08-02T05:20:29.951Z,18.20
2022-08-02T05:22:56.666Z,18.30
2022-08-02T05:25:23.537Z,18.30
2022-08-02T05:27:50.305Z,18.50
2022-08-02T05:30:17.101Z,18.40
2022-08-02T05:32:54.120Z,18.40
2022-08-02T05:35:23.137Z,18.50
2022-08-02T05:37:51.063Z,18.50
2022-08-02T05:40:25.547Z,18.60
2022-08-02T05:42:52.752Z,18.70
2022-08-02T05:45:19.608Z,18.70
2022-08-02T05:47:46.347Z,18.80
2022-08-02T05:50:13.116Z,18.90
2022-08-02T05:52:59.113Z,19.00
2022-08-02T05:55:34.762Z,19.10
2022-08-02T05:58:17.757Z,19.20
2022-08-02T06:00:48.846Z,19.20
2022-08-02T06:03:19.265Z,19.30
2022-08-02T06:06:08.197Z,19.30
2022-08-02T06:08:40.589Z,19.40
2022-08-02T06:11:15.175Z,19.50
2022-08-02T06:13:42.746Z,19.50
2022-08-02T06:16:13.965Z,19.70
2022-08-02T06:18:42.174Z,19.80
2022-08-02T06:22:33.202Z,19.90
2022-08-02T06:23:59.293Z,20.10
2022-08-02T06:26:27.759Z,20.20
2022-08-02T06:28:57.054Z,20.20
2022-08-02T06:31:24.004Z,20.30
2022-08-02T06:33:50.745Z,20.40
2022-08-02T06:36:36.722Z,20.50
2022-08-02T06:39:04.365Z,20.60
2022-08-02T06:41:43.869Z,20.60
2022-08-02T06:44:45.065Z,20.80
2022-08-02T06:47:11.406Z,20.80
2022-08-02T06:49:52.680Z,21.00
2022-08-02T06:52:30.174Z,21.10
2022-08-02T06:55:01.778Z,21.10
2022-08-02T06:57:29.799Z,21.30
2022-08-02T06:59:58.229Z,21.30
2022-08-02T07:02:25.044Z,21.40
2022-08-02T07:04:51.903Z,21.50
2022-08-02T07:07:18.768Z,21.50
2022-08-02T07:09:57.219Z,21.70
2022-08-02T07:12:30.777Z,21.80
2022-08-02T07:14:59.368Z,21.90
2022-08-02T07:17:26.308Z,22.00
2022-08-02T07:19:53.119Z,22.10
2022-08-02T07:22:23.078Z,22.20
2022-08-02T07:24:50.818Z,22.30
2022-08-02T07:27:17.621Z,22.30
2022-08-02T07:29:46.625Z,22.40
2022-08-02T07:32:19.118Z,22.50
2022-08-02T07:34:52.570Z,22.50
2022-08-02T07:37:35.743Z,22.60
2022-08-02T07:40:13.455Z,22.70
2022-08-02T07:42:43.177Z,22.80
2022-08-02T07:45:10.573Z,22.80
2022-08-02T07:47:41.664Z,23.00
2022-08-02T07:50:09.840Z,23.00
2022-08-02T07:52:36.779Z,23.20
2022-08-02T07:55:04.740Z,23.20
2022-08-02T07:57:31.500Z,23.20
2022-08-02T07:59:58.252Z,23.30
2022-08-02T08:02:25.119Z,23.40
2022-08-02T08:04:52.322Z,23.60
2022-08-02T08:07:20.276Z,23.60
2022-08-02T08:09:48.126Z,23.60
2022-08-02T08:12:16.323Z,23.60
2022-08-02T08:14:44.613Z,23.80
2022-08-02T08:17:11.415Z,23.90
2022-08-02T08:19:50.908Z,24.10
2022-08-02T08:22:22.833Z,24.40
2022-08-02T08:24:49.945Z,24.40
2022-08-02T08:27:18.078Z,24.60
2022-08-02T08:29:45.996Z,24.70
2022-08-02T08:32:17.598Z,24.90
2022-08-02T08:34:46.397Z,25.10
2022-08-02T08:37:18.306Z,25.20
2022-08-02T08:39:56.454Z,25.30
2022-08-02T08:42:28.936Z,25.50
2022-08-02T08:44:57.552Z,25.70
2022-08-02T08:47:36.734Z,25.80
2022-08-02T08:50:26.408Z,26.00
2022-08-02T08:53:03.863Z,26.10
2022-08-02T08:55:32.747Z,26.20
2022-08-02T08:58:00.758Z,26.30
2022-08-02T09:00:29.732Z,26.50
2022-08-02T09:02:57.230Z,26.70
2022-08-02T09:05:24.101Z,26.70
2022-08-02T09:07:52.923Z,26.80
2022-08-02T09:10:37.674Z,27.00
2022-08-02T09:13:38.774Z,27.20
2022-08-02T09:16:12.891Z,26.90
2022-08-02T09:18:46.975Z,26.60
2022-08-02T09:21:16.080Z,26.90
2022-08-02T09:23:48.258Z,27.30
2022-08-02T09:26:17.320Z,27.80
2022-08-02T09:28:46.758Z,28.30
2022-08-02T09:31:13.417Z,28.80
2022-08-02T09:33:41.826Z,29.10
2022-08-02T09:36:17.641Z,29.60
2022-08-02T09:39:03.790Z,30.20
2022-08-02T09:41:35.833Z,30.50
2022-08-02T09:44:06.744Z,30.90
2022-08-02T09:46:42.777Z,31.10
2022-08-02T09:49:15.095Z,31.20
2022-08-02T09:51:52.497Z,31.60
2022-08-02T09:54:21.262Z,32.10
2022-08-02T09:56:51.697Z,32.60
2022-08-02T09:59:20.960Z,32.70
2022-08-02T10:01:51.277Z,32.70
2022-08-02T10:04:30.619Z,32.40
2022-08-02T10:06:59.512Z,32.10
2022-08-02T10:09:28.679Z,32.80
2022-08-02T10:11:55.915Z,33.60
2022-08-02T10:14:23.713Z,34.60
2022-08-02T10:16:51.754Z,35.90
2022-08-02T10:19:18.485Z,36.60
2022-08-02T10:22:09.954Z,37.60
2022-08-02T10:24:39.426Z,38.20
2022-08-02T10:27:18.871Z,38.80
2022-08-02T10:29:54.064Z,39.10
2022-08-02T10:32:37.462Z,39.30
2022-08-02T10:35:20.166Z,39.70
2022-08-02T10:38:01.500Z,39.70
2022-08-02T10:40:35.879Z,39.70
2022-08-02T10:43:02.618Z,38.80
2022-08-02T10:45:29.454Z,38.30
2022-08-02T10:48:10.243Z,38.40
2022-08-02T10:50:46.080Z,38.70
2022-08-02T10:53:31.566Z,38.80
2022-08-02T10:56:00.716Z,39.20
2022-08-02T10:58:31.586Z,40.00
2022-08-02T11:01:04.310Z,40.60
2022-08-02T11:03:42.390Z,41.10
2022-08-02T11:06:25.336Z,41.10
2022-08-02T11:09:32.511Z,40.40
2022-08-02T11:12:03.259Z,39.10
2022-08-02T11:14:30.536Z,38.40
2022-08-02T11:16:57.215Z,37.50
2022-08-02T11:19:24.969Z,37.60
2022-08-02T11:22:07.542Z,38.00
2022-08-02T11:24:36.541Z,38.20
2022-08-02T11:27:05.377Z,38.50
2022-08-02T11:29:43.762Z,39.00
2022-08-02T11:32:19.020Z,38.90
2022-08-02T11:34:51.606Z,38.40
2022-08-02T11:37:36.354Z,37.60
2022-08-02T11:40:04.783Z,37.00
2022-08-02T11:42:33.298Z,37.10
2022-08-02T11:45:00.442Z,36.40
2022-08-02T11:47:27.675Z,35.90
2022-08-02T11:50:10.571Z,35.50
2022-08-02T11:52:38.084Z,35.40
2022-08-02T11:55:08.931Z,34.90
2022-08-02T11:58:03.461Z,35.10
2022-08-02T12:00:22.874Z,35.90
2022-08-02T12:02:53.984Z,36.90
2022-08-02T12:05:39.115Z,37.10
2022-08-02T12:08:10.675Z,36.80
2022-08-02T12:10:50.087Z,35.40
2022-08-02T12:13:17.005Z,34.90
2022-08-02T12:15:46.053Z,34.60
2022-08-02T12:18:34.394Z,34.70
2022-08-02T12:21:01.986Z,35.00
2022-08-02T12:23:29.300Z,35.50
2022-08-02T12:26:15.911Z,35.20
2022-08-02T12:28:43.430Z,35.30
2022-08-02T12:31:14.119Z,34.50
2022-08-02T12:33:54.986Z,33.80
2022-08-02T12:36:30.617Z,33.10
2022-08-02T12:39:01.597Z,33.20
2022-08-02T12:41:31.290Z,33.90
2022-08-02T12:44:00.393Z,34.00
2022-08-02T12:46:27.529Z,33.70
2022-08-02T12:49:16.822Z,33.90
2022-08-02T12:51:56.328Z,34.40
2022-08-02T12:54:48.867Z,34.40
2022-08-02T12:57:18.880Z,34.80
2022-08-02T12:59:53.532Z,34.70
2022-08-02T13:02:21.556Z,33.60
2022-08-02T13:04:49.775Z,33.00
2022-08-02T13:07:17.863Z,32.80
2022-08-02T13:09:45.935Z,32.70
2022-08-02T13:12:13.205Z,33.00
2022-08-02T13:14:42.301Z,32.80
2022-08-02T13:17:10.011Z,32.70
2022-08-02T13:19:38.209Z,31.80
2022-08-02T13:22:04.997Z,31.20
2022-08-02T13:24:39.874Z,31.20
2022-08-02T13:27:20.993Z,31.40
2022-08-02T13:29:48.911Z,31.90
2022-08-02T13:32:16.648Z,32.70
2022-08-02T13:34:43.855Z,33.30
2022-08-02T13:37:10.674Z,33.10
2022-08-02T13:39:37.505Z,33.30
2022-08-02T13:42:05.888Z,33.60
2022-08-02T13:44:33.374Z,33.90
2022-08-02T13:47:01.108Z,34.30
2022-08-02T13:49:49.944Z,34.80
2022-08-02T13:52:14.945Z,35.20
2022-08-02T13:54:42.102Z,35.50
2022-08-02T13:57:08.822Z,35.70
2022-08-02T13:59:56.570Z,35.70
2022-08-02T14:02:22.486Z,35.60
2022-08-02T14:04:49.228Z,34.90
2022-08-02T14:07:18.902Z,34.80
2022-08-02T14:09:45.840Z,34.30
2022-08-02T14:12:13.122Z,34.10
2022-08-02T14:14:40.129Z,34.00
2022-08-02T14:17:06.942Z,34.10
2022-08-02T14:19:33.687Z,33.90
2022-08-02T14:22:11.020Z,33.90
2022-08-02T14:24:39.718Z,34.00
2022-08-02T14:27:06.579Z,33.80
2022-08-02T14:29:33.384Z,34.10
2022-08-02T14:32:00.263Z,34.30
2022-08-02T14:34:27.845Z,34.60
2022-08-02T14:36:56.586Z,34.10
2022-08-02T14:39:23.423Z,33.60
2022-08-02T14:42:00.212Z,33.40
2022-08-02T14:44:28.782Z,32.80
2022-08-02T14:46:55.961Z,32.50
2022-08-02T14:49:25.940Z,32.40
2022-08-02T14:51:57.066Z,32.40
2022-08-02T14:54:28.260Z,32.30
2022-08-02T14:56:59.321Z,32.30
2022-08-02T14:59:26.451Z,32.50
2022-08-02T15:01:53.360Z,32.20
2022-08-02T15:04:20.406Z,31.90
2022-08-02T15:06:47.167Z,31.90
2022-08-02T15:09:13.934Z,32.20
2022-08-02T15:11:47.508Z,32.40
2022-08-02T15:14:18.489Z,32.30
2022-08-02T15:16:56.443Z,32.30
2022-08-02T15:19:23.709Z,32.70
2022-08-02T15:21:56.007Z,32.70
2022-08-02T15:24:23.986Z,32.30
2022-08-02T15:26:51.345Z,32.10
2022-08-02T15:29:18.912Z,32.00
2022-08-02T15:31:46.166Z,32.10
2022-08-02T15:34:13.254Z,32.30
2022-08-02T15:36:40.182Z,32.60
2022-08-02T15:39:06.976Z,32.90
2022-08-02T15:41:33.802Z,33.00
2022-08-02T15:44:01.895Z,32.80
2022-08-02T15:46:31.104Z,32.60
2022-08-02T15:48:59.722Z,32.70
2022-08-02T15:51:26.975Z,32.60
2022-08-02T15:53:53.849Z,32.70
2022-08-02T15:56:21.957Z,32.70
2022-08-02T15:58:52.978Z,32.60
2022-08-02T16:01:23.669Z,32.30
2022-08-02T16:03:50.525Z,32.60
2022-08-02T16:06:17.455Z,32.70
2022-08-02T16:08:51.684Z,32.70
2022-08-02T16:11:22.498Z,32.20
2022-08-02T16:13:55.176Z,31.70
2022-08-02T16:16:26.072Z,31.70
2022-08-02T16:18:52.851Z,31.90
2022-08-02T16:21:19.769Z,32.10
2022-08-02T16:24:01.622Z,32.40
2022-08-02T16:26:31.033Z,32.40
2022-08-02T16:28:58.830Z,32.30
2022-08-02T16:31:25.556Z,32.40
2022-08-02T16:33:55.963Z,32.50
2022-08-02T16:36:23.977Z,32.30
2022-08-02T16:38:50.758Z,31.90
2022-08-02T16:41:17.462Z,31.80
2022-08-02T16:43:44.168Z,31.90
2022-08-02T16:46:10.983Z,31.90
2022-08-02T16:48:37.831Z,32.00
2022-08-02T16:51:04.818Z,31.70
2022-08-02T16:54:00.276Z,31.30
2022-08-02T16:56:29.024Z,30.90
2022-08-02T16:58:59.489Z,30.80
2022-08-02T17:02:02.715Z,30.60
2022-08-02T17:04:15.585Z,30.30
2022-08-02T17:06:47.729Z,30.00
2022-08-02T17:10:02.165Z,29.80
2022-08-02T17:12:06.348Z,29.60
2022-08-02T17:17:34.295Z,29.20
2022-08-02T17:20:02.005Z,29.20
2022-08-02T17:22:28.965Z,29.20
2022-08-02T17:24:56.151Z,29.20
2022-08-02T17:27:23.045Z,29.20
2022-08-02T17:29:49.892Z,29.20
2022-08-02T17:32:18.348Z,29.20
2022-08-02T17:34:48.971Z,29.20
2022-08-02T17:37:26.409Z,29.10
2022-08-02T17:39:53.167Z,29.10
2022-08-02T17:42:23.737Z,29.00
2022-08-02T17:44:51.841Z,28.90
2022-08-02T17:47:19.213Z,28.70
2022-08-02T17:49:48.438Z,28.50
2022-08-02T17:52:51.910Z,28.40
2022-08-02T17:55:04.106Z,28.30
2022-08-02T17:57:58.095Z,28.20
2022-08-02T18:00:17.956Z,28.20
2022-08-02T18:02:53.020Z,28.20
2022-08-02T18:05:35.411Z,28.20
2022-08-02T18:08:07.549Z,28.20
2022-08-02T18:10:34.452Z,28.00
2022-08-02T18:13:01.211Z,28.00
2022-08-02T18:15:30.358Z,28.00
2022-08-02T18:17:59.466Z,27.90
2022-08-02T18:20:26.242Z,27.90
2022-08-02T18:22:55.581Z,27.80
2022-08-02T18:25:37.059Z,27.60
2022-08-02T18:28:11.859Z,27.40
2022-08-02T18:30:39.444Z,27.30
2022-08-02T18:33:59.369Z,27.10
2022-08-02T18:35:55.688Z,27.10
2022-08-02T18:38:23.582Z,27.20
2022-08-02T18:40:51.231Z,27.20
2022-08-02T18:43:18.476Z,27.20
2022-08-02T18:46:05.485Z,27.20
2022-08-02T18:48:32.121Z,27.10
2022-08-02T18:50:58.830Z,27.00
2022-08-02T18:53:39.322Z,27.00
2022-08-02T18:56:20.013Z,26.90
2022-08-02T18:58:55.284Z,26.90
2022-08-02T19:01:33.901Z,26.80
2022-08-02T19:04:04.219Z,26.70
2022-08-02T19:06:31.719Z,26.70
2022-08-02T19:09:12.826Z,26.70
2022-08-02T19:11:47.223Z,26.60
2022-08-02T19:14:27.140Z,26.50
2022-08-02T19:16:59.299Z,26.50
2022-08-02T19:19:28.885Z,26.40
2022-08-02T19:22:16.458Z,26.30
2022-08-02T19:24:45.874Z,26.30
2022-08-02T19:27:14.670Z,26.30
2022-08-02T19:29:48.914Z,26.30
2022-08-02T19:35:19.726Z,26.30
2022-08-02T19:37:53.947Z,26.20
2022-08-02T19:40:24.426Z,26.10
2022-08-02T19:44:23.171Z,26.00
2022-08-02T19:45:49.751Z,25.90
2022-08-02T19:48:24.176Z,25.80
2022-08-02T19:50:56.284Z,25.70
2022-08-02T19:53:28.469Z,25.60
2022-08-02T19:55:59.951Z,25.50
2022-08-02T19:58:30.284Z,25.40
2022-08-02T20:00:57.785Z,25.30
2022-08-02T20:03:52.135Z,25.20
2022-08-02T20:06:13.688Z,25.20
2022-08-02T20:08:53.065Z,25.10
2022-08-02T20:11:24.673Z,25.10
2022-08-02T20:13:52.689Z,25.00
2022-08-02T20:16:27.477Z,25.00
2022-08-02T20:18:56.109Z,24.90
2022-08-02T20:21:30.568Z,24.90
2022-08-02T20:24:01.719Z,24.80
2022-08-02T20:26:28.637Z,24.80
2022-08-02T20:28:55.343Z,24.70
2022-08-02T20:31:29.029Z,24.70
2022-08-02T20:33:56.905Z,24.60
2022-08-02T20:36:24.889Z,24.50
2022-08-02T20:38:51.620Z,24.40
2022-08-02T20:41:21.599Z,24.40
2022-08-02T20:43:48.885Z,24.40
2022-08-02T20:46:15.837Z,24.40
2022-08-02T20:48:42.589Z,24.30
2022-08-02T20:51:12.559Z,24.20
2022-08-02T20:53:55.037Z,24.10
2022-08-02T20:56:23.533Z,24.10
2022-08-02T20:58:52.182Z,24.10
2022-08-02T21:01:21.202Z,24.00
2022-08-02T21:03:58.714Z,23.90
2022-08-02T21:06:28.205Z,23.90
2022-08-02T21:08:55.758Z,23.80
2022-08-02T21:11:25.312Z,23.70
2022-08-02T21:14:07.259Z,23.60
2022-08-02T21:16:35.126Z,23.50
2022-08-02T21:19:02.119Z,23.50
2022-08-02T21:21:29.785Z,23.40
2022-08-02T21:23:57.216Z,23.40
2022-08-02T21:26:28.128Z,23.30
2022-08-02T21:28:57.940Z,23.30
2022-08-02T21:31:30.014Z,23.30
2022-08-02T21:34:00.132Z,23.20
2022-08-02T21:36:33.840Z,23.20
2022-08-02T21:39:08.973Z,23.20
2022-08-02T21:41:39.068Z,23.20
2022-08-02T21:44:13.286Z,23.10
2022-08-02T21:46:40.828Z,23.10
2022-08-02T21:49:11.352Z,23.00
2022-08-02T21:51:39.348Z,23.00
2022-08-02T21:54:18.574Z,22.90
2022-08-02T21:56:48.282Z,22.80
2022-08-02T21:59:17.233Z,22.70
2022-08-02T22:01:52.640Z,22.70
2022-08-02T22:04:21.656Z,22.70
2022-08-02T22:06:49.324Z,22.60
2022-08-02T22:09:42.181Z,22.60
2022-08-02T22:12:06.510Z,22.50
2022-08-02T22:14:39.571Z,22.50
2022-08-02T22:17:08.775Z,22.40
2022-08-02T22:19:40.082Z,22.40
2022-08-02T22:22:20.399Z,22.30
2022-08-02T22:24:47.167Z,22.30
2022-08-02T22:27:14.431Z,22.20
2022-08-02T22:29:46.520Z,22.20
2022-08-02T22:32:21.065Z,22.20
2022-08-02T22:34:52.131Z,22.10
2022-08-02T22:38:16.560Z,22.00
2022-08-02T22:40:09.570Z,22.00
2022-08-02T22:42:36.641Z,22.00
2022-08-02T22:45:07.693Z,22.00
2022-08-02T22:47:38.644Z,22.00
2022-08-02T22:50:06.166Z,21.90
2022-08-02T22:52:38.771Z,22.00
2022-08-02T22:55:05.916Z,21.90
2022-08-02T22:57:33.378Z,21.90
2022-08-02T22:58:37.496Z,29.30
2022-08-02T22:58:48.533Z,26.30
